sensor_id;sensor_type;location;lat;lon;timestamp;temperature;humidity
2226;DHT22;1119;48.288;8.726;2022-11-04T00:02:04;10.10;99.90
2226;DHT22;1119;48.288;8.726;2022-11-04T00:04:33;10.10;99.90
2226;DHT22;1119;48.288;8.726;2022-11-04T00:07:00;10.10;99.90
2226;DHT22;1119;48.288;8.726;2022-11-04T00:09:47;10.00;99.90
2226;DHT22;1119;48.288;8.726;2022-11-04T00:12:14;10.00;99.90
2226;DHT22;1119;48.288;8.726;2022-11-04T00:14:49;10.00;99.90
2226;DHT22;1119;48.288;8.726;2022-11-04T00:17:17;10.10;99.90
2226;DHT22;1119;48.288;8.726;2022-11-04T00:19:49;10.10;99.90
2226;DHT22;1119;48.288;8.726;2022-11-04T00:22:35;10.10;99.90
2226;DHT22;1119;48.288;8.726;2022-11-04T00:25:21;10.00;99.90
2226;DHT22;1119;48.288;8.726;2022-11-04T00:28:10;10.00;99.90
2226;DHT22;1119;48.288;8.726;2022-11-04T00:30:56;10.00;99.90
2226;DHT22;1119;48.288;8.726;2022-11-04T00:33:44;9.90;99.90
2226;DHT22;1119;48.288;8.726;2022-11-04T00:36:12;9.90;99.90
2226;DHT22;1119;48.288;8.726;2022-11-04T00:38:39;9.90;99.90
2226;DHT22;1119;48.288;8.726;2022-11-04T00:41:07;9.90;99.90
2226;DHT22;1119;48.288;8.726;2022-11-04T00:43:50;9.90;99.90
2226;DHT22;1119;48.288;8.726;2022-11-04T00:46:18;9.90;99.90
2226;DHT22;1119;48.288;8.726;2022-11-04T00:48:45;9.90;99.90
2226;DHT22;1119;48.288;8.726;2022-11-04T00:51:14;9.90;99.90
2226;DHT22;1119;48.288;8.726;2022-11-04T00:53:41;9.80;99.90
2226;DHT22;1119;48.288;8.726;2022-11-04T00:56:09;9.80;99.90
2226;DHT22;1119;48.288;8.726;2022-11-04T00:58:36;9.80;99.90
2226;DHT22;1119;48.288;8.726;2022-11-04T01:01:07;9.70;99.90
2226;DHT22;1119;48.288;8.726;2022-11-04T01:03:35;9.80;99.90
2226;DHT22;1119;48.288;8.726;2022-11-04T01:06:02;9.70;99.90
2226;DHT22;1119;48.288;8.726;2022-11-04T01:08:31;9.70;99.90
2226;DHT22;1119;48.288;8.726;2022-11-04T01:11:00;9.70;99.90
2226;DHT22;1119;48.288;8.726;2022-11-04T01:13:28;9.70;99.90
2226;DHT22;1119;48.288;8.726;2022-11-04T01:15:56;9.70;99.90
2226;DHT22;1119;48.288;8.726;2022-11-04T01:18:24;9.60;99.90
2226;DHT22;1119;48.288;8.726;2022-11-04T01:20:51;9.60;99.90
2226;DHT22;1119;48.288;8.726;2022-11-04T01:23:19;9.70;99.90
2226;DHT22;1119;48.288;8.726;2022-11-04T01:25:48;9.70;99.90
2226;DHT22;1119;48.288;8.726;2022-11-04T01:28:15;9.70;99.90
2226;DHT22;1119;48.288;8.726;2022-11-04T01:30:42;9.70;99.90
2226;DHT22;1119;48.288;8.726;2022-11-04T01:33:09;9.80;99.90
2226;DHT22;1119;48.288;8.726;2022-11-04T01:35:36;9.80;99.90
2226;DHT22;1119;48.288;8.726;2022-11-04T01:38:04;9.90;99.90
2226;DHT22;1119;48.288;8.726;2022-11-04T01:40:35;9.90;99.90
2226;DHT22;1119;48.288;8.726;2022-11-04T01:43:08;10.00;99.90
2226;DHT22;1119;48.288;8.726;2022-11-04T01:45:38;10.00;99.90
2226;DHT22;1119;48.288;8.726;2022-11-04T01:48:09;10.00;99.90
2226;DHT22;1119;48.288;8.726;2022-11-04T01:50:41;9.90;99.90
2226;DHT22;1119;48.288;8.726;2022-11-04T01:53:11;9.80;99.90
2226;DHT22;1119;48.288;8.726;2022-11-04T01:55:45;9.50;99.90
2226;DHT22;1119;48.288;8.726;2022-11-04T01:58:17;9.40;99.90
2226;DHT22;1119;48.288;8.726;2022-11-04T02:00:46;9.40;99.90
2226;DHT22;1119;48.288;8.726;2022-11-04T02:03:16;9.20;99.90
2226;DHT22;1119;48.288;8.726;2022-11-04T02:05:46;9.20;99.90
2226;DHT22;1119;48.288;8.726;2022-11-04T02:08:14;9.00;99.90
2226;DHT22;1119;48.288;8.726;2022-11-04T02:10:59;8.90;99.90
2226;DHT22;1119;48.288;8.726;2022-11-04T02:13:30;8.80;99.90
2226;DHT22;1119;48.288;8.726;2022-11-04T02:16:07;8.80;99.90
2226;DHT22;1119;48.288;8.726;2022-11-04T02:18:50;8.80;99.90
2226;DHT22;1119;48.288;8.726;2022-11-04T02:21:48;8.70;99.90
2226;DHT22;1119;48.288;8.726;2022-11-04T02:24:41;8.70;99.90
2226;DHT22;1119;48.288;8.726;2022-11-04T02:27:28;8.80;99.90
2226;DHT22;1119;48.288;8.726;2022-11-04T02:30:09;8.70;99.90
2226;DHT22;1119;48.288;8.726;2022-11-04T02:32:53;8.80;99.90
2226;DHT22;1119;48.288;8.726;2022-11-04T02:35:42;8.70;99.90
2226;DHT22;1119;48.288;8.726;2022-11-04T02:38:22;8.70;99.90
2226;DHT22;1119;48.288;8.726;2022-11-04T02:41:01;8.60;99.90
2226;DHT22;1119;48.288;8.726;2022-11-04T02:43:44;8.60;99.90
2226;DHT22;1119;48.288;8.726;2022-11-04T02:46:19;8.60;99.90
2226;DHT22;1119;48.288;8.726;2022-11-04T02:48:56;8.60;99.90
2226;DHT22;1119;48.288;8.726;2022-11-04T02:51:29;8.70;99.90
2226;DHT22;1119;48.288;8.726;2022-11-04T02:54:03;8.60;99.90
2226;DHT22;1119;48.288;8.726;2022-11-04T02:56:35;8.70;99.90
2226;DHT22;1119;48.288;8.726;2022-11-04T02:59:07;8.70;99.90
2226;DHT22;1119;48.288;8.726;2022-11-04T03:01:40;8.80;99.90
2226;DHT22;1119;48.288;8.726;2022-11-04T03:04:12;8.80;99.90
2226;DHT22;1119;48.288;8.726;2022-11-04T03:06:41;8.80;99.90
2226;DHT22;1119;48.288;8.726;2022-11-04T03:09:11;8.90;99.90
2226;DHT22;1119;48.288;8.726;2022-11-04T03:11:44;8.90;99.90
2226;DHT22;1119;48.288;8.726;2022-11-04T03:14:15;8.90;99.90
2226;DHT22;1119;48.288;8.726;2022-11-04T03:16:48;8.80;99.90
2226;DHT22;1119;48.288;8.726;2022-11-04T03:19:20;8.80;99.90
2226;DHT22;1119;48.288;8.726;2022-11-04T03:21:53;8.80;99.90
2226;DHT22;1119;48.288;8.726;2022-11-04T03:24:21;8.80;99.90
2226;DHT22;1119;48.288;8.726;2022-11-04T03:26:54;8.80;99.90
2226;DHT22;1119;48.288;8.726;2022-11-04T03:29:30;8.70;99.90
2226;DHT22;1119;48.288;8.726;2022-11-04T03:32:09;8.70;99.90
2226;DHT22;1119;48.288;8.726;2022-11-04T03:34:41;8.60;99.90
2226;DHT22;1119;48.288;8.726;2022-11-04T03:37:08;8.60;99.90
2226;DHT22;1119;48.288;8.726;2022-11-04T03:39:36;8.60;99.90
2226;DHT22;1119;48.288;8.726;2022-11-04T03:42:07;8.50;99.90
2226;DHT22;1119;48.288;8.726;2022-11-04T03:44:47;8.50;99.90
2226;DHT22;1119;48.288;8.726;2022-11-04T03:47:17;8.50;99.90
2226;DHT22;1119;48.288;8.726;2022-11-04T03:49:46;8.50;99.90
2226;DHT22;1119;48.288;8.726;2022-11-04T03:52:15;8.40;99.90
2226;DHT22;1119;48.288;8.726;2022-11-04T03:54:43;8.40;99.90
2226;DHT22;1119;48.288;8.726;2022-11-04T03:57:23;8.40;99.90
2226;DHT22;1119;48.288;8.726;2022-11-04T04:00:08;8.40;99.90
2226;DHT22;1119;48.288;8.726;2022-11-04T04:02:59;8.40;99.90
2226;DHT22;1119;48.288;8.726;2022-11-04T04:05:30;8.40;99.90
2226;DHT22;1119;48.288;8.726;2022-11-04T04:08:12;8.40;99.90
2226;DHT22;1119;48.288;8.726;2022-11-04T04:10:48;8.40;99.90
2226;DHT22;1119;48.288;8.726;2022-11-04T04:13:26;8.50;99.90
2226;DHT22;1119;48.288;8.726;2022-11-04T04:16:06;8.50;99.90
2226;DHT22;1119;48.288;8.726;2022-11-04T04:18:39;8.50;99.90
2226;DHT22;1119;48.288;8.726;2022-11-04T04:21:11;8.50;99.90
2226;DHT22;1119;48.288;8.726;2022-11-04T04:23:42;8.50;99.90
2226;DHT22;1119;48.288;8.726;2022-11-04T04:26:29;8.50;99.90
2226;DHT22;1119;48.288;8.726;2022-11-04T04:29:17;8.60;99.90
2226;DHT22;1119;48.288;8.726;2022-11-04T04:31:46;8.50;99.90
2226;DHT22;1119;48.288;8.726;2022-11-04T04:34:21;8.60;99.90
2226;DHT22;1119;48.288;8.726;2022-11-04T04:36:59;8.60;99.90
2226;DHT22;1119;48.288;8.726;2022-11-04T04:39:34;8.60;99.90
2226;DHT22;1119;48.288;8.726;2022-11-04T04:42:21;8.70;99.90
2226;DHT22;1119;48.288;8.726;2022-11-04T04:45:08;8.70;99.90
2226;DHT22;1119;48.288;8.726;2022-11-04T04:47:42;8.80;99.90
2226;DHT22;1119;48.288;8.726;2022-11-04T04:50:14;8.70;99.90
2226;DHT22;1119;48.288;8.726;2022-11-04T04:52:45;8.70;99.90
2226;DHT22;1119;48.288;8.726;2022-11-04T04:55:15;8.70;99.90
2226;DHT22;1119;48.288;8.726;2022-11-04T04:57:43;8.70;99.90
2226;DHT22;1119;48.288;8.726;2022-11-04T05:00:13;8.70;99.90
2226;DHT22;1119;48.288;8.726;2022-11-04T05:02:41;8.70;99.90
2226;DHT22;1119;48.288;8.726;2022-11-04T05:05:09;8.70;99.90
2226;DHT22;1119;48.288;8.726;2022-11-04T05:07:39;8.70;99.90
2226;DHT22;1119;48.288;8.726;2022-11-04T05:10:08;8.70;99.90
2226;DHT22;1119;48.288;8.726;2022-11-04T05:12:37;8.70;99.90
2226;DHT22;1119;48.288;8.726;2022-11-04T05:15:23;8.70;99.90
2226;DHT22;1119;48.288;8.726;2022-11-04T05:17:52;8.70;99.90
2226;DHT22;1119;48.288;8.726;2022-11-04T05:20:20;8.70;99.90
2226;DHT22;1119;48.288;8.726;2022-11-04T05:22:49;8.70;99.90
2226;DHT22;1119;48.288;8.726;2022-11-04T05:25:16;8.60;99.90
2226;DHT22;1119;48.288;8.726;2022-11-04T05:27:44;8.50;99.90
2226;DHT22;1119;48.288;8.726;2022-11-04T05:30:11;8.40;99.90
2226;DHT22;1119;48.288;8.726;2022-11-04T05:32:38;8.30;99.90
2226;DHT22;1119;48.288;8.726;2022-11-04T05:35:06;8.20;99.90
2226;DHT22;1119;48.288;8.726;2022-11-04T05:37:33;8.20;99.90
2226;DHT22;1119;48.288;8.726;2022-11-04T05:40:02;8.20;99.90
2226;DHT22;1119;48.288;8.726;2022-11-04T05:42:30;8.20;99.90
2226;DHT22;1119;48.288;8.726;2022-11-04T05:44:58;8.20;99.90
2226;DHT22;1119;48.288;8.726;2022-11-04T05:47:25;8.20;99.90
2226;DHT22;1119;48.288;8.726;2022-11-04T05:49:52;8.20;99.90
2226;DHT22;1119;48.288;8.726;2022-11-04T05:52:20;8.20;99.90
2226;DHT22;1119;48.288;8.726;2022-11-04T05:54:47;8.20;99.90
2226;DHT22;1119;48.288;8.726;2022-11-04T05:57:16;8.20;99.90
2226;DHT22;1119;48.288;8.726;2022-11-04T05:59:43;8.20;99.90
2226;DHT22;1119;48.288;8.726;2022-11-04T06:02:10;8.20;99.90
2226;DHT22;1119;48.288;8.726;2022-11-04T06:04:37;8.20;99.90
2226;DHT22;1119;48.288;8.726;2022-11-04T06:07:23;8.20;99.90
2226;DHT22;1119;48.288;8.726;2022-11-04T06:09:50;8.20;99.90
2226;DHT22;1119;48.288;8.726;2022-11-04T06:12:19;8.20;99.90
2226;DHT22;1119;48.288;8.726;2022-11-04T06:14:46;8.20;99.90
2226;DHT22;1119;48.288;8.726;2022-11-04T06:17:14;8.10;99.90
2226;DHT22;1119;48.288;8.726;2022-11-04T06:19:42;8.00;99.90
2226;DHT22;1119;48.288;8.726;2022-11-04T06:22:11;7.90;99.90
2226;DHT22;1119;48.288;8.726;2022-11-04T06:24:39;7.80;99.90
2226;DHT22;1119;48.288;8.726;2022-11-04T06:27:07;7.70;99.90
2226;DHT22;1119;48.288;8.726;2022-11-04T06:29:36;7.60;99.90
2226;DHT22;1119;48.288;8.726;2022-11-04T06:32:05;7.60;99.90
2226;DHT22;1119;48.288;8.726;2022-11-04T06:34:33;7.60;99.90
2226;DHT22;1119;48.288;8.726;2022-11-04T06:37:00;7.60;99.90
2226;DHT22;1119;48.288;8.726;2022-11-04T06:39:27;7.50;99.90
2226;DHT22;1119;48.288;8.726;2022-11-04T06:41:55;7.50;99.90
2226;DHT22;1119;48.288;8.726;2022-11-04T06:44:22;7.50;99.90
2226;DHT22;1119;48.288;8.726;2022-11-04T06:46:51;7.50;99.90
2226;DHT22;1119;48.288;8.726;2022-11-04T06:49:19;7.50;99.90
2226;DHT22;1119;48.288;8.726;2022-11-04T06:51:48;7.50;99.90
2226;DHT22;1119;48.288;8.726;2022-11-04T06:54:17;7.50;99.90
2226;DHT22;1119;48.288;8.726;2022-11-04T06:56:45;7.50;99.90
2226;DHT22;1119;48.288;8.726;2022-11-04T06:59:15;7.50;99.90
2226;DHT22;1119;48.288;8.726;2022-11-04T07:01:43;7.50;99.90
2226;DHT22;1119;48.288;8.726;2022-11-04T07:04:12;7.50;99.90
2226;DHT22;1119;48.288;8.726;2022-11-04T07:06:40;7.60;99.90
2226;DHT22;1119;48.288;8.726;2022-11-04T07:09:10;7.50;99.90
2226;DHT22;1119;48.288;8.726;2022-11-04T07:11:38;7.50;99.90
2226;DHT22;1119;48.288;8.726;2022-11-04T07:14:06;7.50;99.90
2226;DHT22;1119;48.288;8.726;2022-11-04T07:16:33;7.60;99.90
2226;DHT22;1119;48.288;8.726;2022-11-04T07:19:00;7.60;99.90
2226;DHT22;1119;48.288;8.726;2022-11-04T07:21:29;7.70;99.90
2226;DHT22;1119;48.288;8.726;2022-11-04T07:23:57;7.70;99.90
2226;DHT22;1119;48.288;8.726;2022-11-04T07:26:24;7.70;99.90
2226;DHT22;1119;48.288;8.726;2022-11-04T07:28:52;7.70;99.90
2226;DHT22;1119;48.288;8.726;2022-11-04T07:31:19;7.80;99.90
2226;DHT22;1119;48.288;8.726;2022-11-04T07:33:47;7.80;99.90
2226;DHT22;1119;48.288;8.726;2022-11-04T07:36:16;7.80;99.90
2226;DHT22;1119;48.288;8.726;2022-11-04T07:38:46;7.80;99.90
2226;DHT22;1119;48.288;8.726;2022-11-04T07:41:14;7.90;99.90
2226;DHT22;1119;48.288;8.726;2022-11-04T07:43:46;8.00;99.90
2226;DHT22;1119;48.288;8.726;2022-11-04T07:46:14;8.00;99.90
2226;DHT22;1119;48.288;8.726;2022-11-04T07:48:41;8.20;99.90
2226;DHT22;1119;48.288;8.726;2022-11-04T07:51:12;8.20;99.90
2226;DHT22;1119;48.288;8.726;2022-11-04T07:53:41;8.30;99.90
2226;DHT22;1119;48.288;8.726;2022-11-04T07:56:11;8.40;99.90
2226;DHT22;1119;48.288;8.726;2022-11-04T07:58:39;8.40;99.90
2226;DHT22;1119;48.288;8.726;2022-11-04T08:01:09;8.40;99.90
2226;DHT22;1119;48.288;8.726;2022-11-04T08:03:37;8.50;99.90
2226;DHT22;1119;48.288;8.726;2022-11-04T08:06:07;8.60;99.90
2226;DHT22;1119;48.288;8.726;2022-11-04T08:08:36;8.70;99.90
2226;DHT22;1119;48.288;8.726;2022-11-04T08:11:05;8.80;99.90
2226;DHT22;1119;48.288;8.726;2022-11-04T08:13:36;8.90;99.90
2226;DHT22;1119;48.288;8.726;2022-11-04T08:16:05;8.90;99.90
2226;DHT22;1119;48.288;8.726;2022-11-04T08:18:35;8.90;99.90
2226;DHT22;1119;48.288;8.726;2022-11-04T08:21:03;8.90;99.90
2226;DHT22;1119;48.288;8.726;2022-11-04T08:23:31;8.90;99.90
2226;DHT22;1119;48.288;8.726;2022-11-04T08:25:59;9.00;99.90
2226;DHT22;1119;48.288;8.726;2022-11-04T08:28:27;9.00;99.90
2226;DHT22;1119;48.288;8.726;2022-11-04T08:30:58;9.00;99.90
2226;DHT22;1119;48.288;8.726;2022-11-04T08:33:29;9.10;99.90
2226;DHT22;1119;48.288;8.726;2022-11-04T08:35:59;9.10;99.90
2226;DHT22;1119;48.288;8.726;2022-11-04T08:38:28;9.00;99.90
2226;DHT22;1119;48.288;8.726;2022-11-04T08:40:56;9.00;99.90
2226;DHT22;1119;48.288;8.726;2022-11-04T08:43:23;8.90;99.90
2226;DHT22;1119;48.288;8.726;2022-11-04T08:45:52;8.90;99.90
2226;DHT22;1119;48.288;8.726;2022-11-04T08:48:21;8.90;99.90
2226;DHT22;1119;48.288;8.726;2022-11-04T08:50:50;8.40;99.90
2226;DHT22;1119;48.288;8.726;2022-11-04T08:53:18;8.90;99.90
2226;DHT22;1119;48.288;8.726;2022-11-04T08:55:45;9.00;99.90
2226;DHT22;1119;48.288;8.726;2022-11-04T08:58:13;9.00;99.90
2226;DHT22;1119;48.288;8.726;2022-11-04T09:00:41;9.00;99.90
2226;DHT22;1119;48.288;8.726;2022-11-04T09:03:08;9.00;99.90
2226;DHT22;1119;48.288;8.726;2022-11-04T09:05:38;9.50;99.90
2226;DHT22;1119;48.288;8.726;2022-11-04T09:08:10;8.90;99.90
2226;DHT22;1119;48.288;8.726;2022-11-04T09:10:40;8.90;99.90
2226;DHT22;1119;48.288;8.726;2022-11-04T09:13:08;8.90;99.90
2226;DHT22;1119;48.288;8.726;2022-11-04T09:15:36;8.90;99.90
2226;DHT22;1119;48.288;8.726;2022-11-04T09:18:04;9.10;99.90
2226;DHT22;1119;48.288;8.726;2022-11-04T09:20:32;9.20;99.90
2226;DHT22;1119;48.288;8.726;2022-11-04T09:23:01;9.30;99.90
2226;DHT22;1119;48.288;8.726;2022-11-04T09:25:29;9.30;99.90
2226;DHT22;1119;48.288;8.726;2022-11-04T09:27:57;9.50;99.90
2226;DHT22;1119;48.288;8.726;2022-11-04T09:30:29;9.50;99.90
2226;DHT22;1119;48.288;8.726;2022-11-04T09:32:56;9.60;99.90
2226;DHT22;1119;48.288;8.726;2022-11-04T09:35:24;9.70;99.90
2226;DHT22;1119;48.288;8.726;2022-11-04T09:37:52;9.80;99.90
2226;DHT22;1119;48.288;8.726;2022-11-04T09:40:23;9.90;99.90
2226;DHT22;1119;48.288;8.726;2022-11-04T09:42:59;9.90;99.90
2226;DHT22;1119;48.288;8.726;2022-11-04T09:45:33;10.00;99.90
2226;DHT22;1119;48.288;8.726;2022-11-04T09:48:07;10.40;99.90
2226;DHT22;1119;48.288;8.726;2022-11-04T09:50:43;10.20;99.90
2226;DHT22;1119;48.288;8.726;2022-11-04T09:53:16;10.30;99.90
2226;DHT22;1119;48.288;8.726;2022-11-04T09:55:51;10.40;99.90
2226;DHT22;1119;48.288;8.726;2022-11-04T09:58:21;10.50;99.90
2226;DHT22;1119;48.288;8.726;2022-11-04T10:00:53;10.60;99.90
2226;DHT22;1119;48.288;8.726;2022-11-04T10:03:39;10.70;99.90
2226;DHT22;1119;48.288;8.726;2022-11-04T10:06:27;10.90;99.90
2226;DHT22;1119;48.288;8.726;2022-11-04T10:09:05;10.80;99.90
2226;DHT22;1119;48.288;8.726;2022-11-04T10:11:45;10.90;99.90
2226;DHT22;1119;48.288;8.726;2022-11-04T10:14:33;10.90;99.90
2226;DHT22;1119;48.288;8.726;2022-11-04T10:17:33;11.00;99.90
2226;DHT22;1119;48.288;8.726;2022-11-04T10:20:20;11.10;99.90
2226;DHT22;1119;48.288;8.726;2022-11-04T10:22:57;11.20;99.90
2226;DHT22;1119;48.288;8.726;2022-11-04T10:25:30;11.20;99.90
2226;DHT22;1119;48.288;8.726;2022-11-04T10:28:06;11.80;99.90
2226;DHT22;1119;48.288;8.726;2022-11-04T10:30:35;11.30;99.90
2226;DHT22;1119;48.288;8.726;2022-11-04T10:33:08;11.30;99.60
2226;DHT22;1119;48.288;8.726;2022-11-04T10:35:43;11.20;99.10
2226;DHT22;1119;48.288;8.726;2022-11-04T10:38:18;11.20;99.10
2226;DHT22;1119;48.288;8.726;2022-11-04T10:40:49;11.10;99.00
2226;DHT22;1119;48.288;8.726;2022-11-04T10:43:26;11.10;98.70
2226;DHT22;1119;48.288;8.726;2022-11-04T10:46:11;11.10;98.70
2226;DHT22;1119;48.288;8.726;2022-11-04T10:48:48;11.00;99.20
2226;DHT22;1119;48.288;8.726;2022-11-04T10:51:17;10.90;98.60
2226;DHT22;1119;48.288;8.726;2022-11-04T10:53:47;10.90;98.30
2226;DHT22;1119;48.288;8.726;2022-11-04T10:56:20;10.90;98.70
2226;DHT22;1119;48.288;8.726;2022-11-04T10:58:53;10.90;99.20
2226;DHT22;1119;48.288;8.726;2022-11-04T11:01:26;11.00;99.80
2226;DHT22;1119;48.288;8.726;2022-11-04T11:03:56;11.00;99.70
2226;DHT22;1119;48.288;8.726;2022-11-04T11:06:26;11.10;99.00
2226;DHT22;1119;48.288;8.726;2022-11-04T11:08:57;11.10;98.70
2226;DHT22;1119;48.288;8.726;2022-11-04T11:11:37;11.00;99.10
2226;DHT22;1119;48.288;8.726;2022-11-04T11:14:29;11.00;98.70
2226;DHT22;1119;48.288;8.726;2022-11-04T11:17:17;11.10;98.60
2226;DHT22;1119;48.288;8.726;2022-11-04T11:19:54;11.20;98.70
2226;DHT22;1119;48.288;8.726;2022-11-04T11:22:33;11.20;99.20
2226;DHT22;1119;48.288;8.726;2022-11-04T11:25:22;11.30;99.00
2226;DHT22;1119;48.288;8.726;2022-11-04T11:27:52;11.40;98.90
2226;DHT22;1119;48.288;8.726;2022-11-04T11:30:26;11.10;98.40
2226;DHT22;1119;48.288;8.726;2022-11-04T11:32:57;11.40;98.50
2226;DHT22;1119;48.288;8.726;2022-11-04T11:35:31;11.50;99.00
2226;DHT22;1119;48.288;8.726;2022-11-04T11:38:17;11.60;98.60
2226;DHT22;1119;48.288;8.726;2022-11-04T11:40:48;11.60;98.00
2226;DHT22;1119;48.288;8.726;2022-11-04T11:43:22;11.60;98.30
2226;DHT22;1119;48.288;8.726;2022-11-04T11:45:54;11.70;98.80
2226;DHT22;1119;48.288;8.726;2022-11-04T11:48:30;12.10;98.30
2226;DHT22;1119;48.288;8.726;2022-11-04T11:50:58;11.70;98.00
2226;DHT22;1119;48.288;8.726;2022-11-04T11:53:27;11.70;97.90
2226;DHT22;1119;48.288;8.726;2022-11-04T11:56:06;11.60;98.00
2226;DHT22;1119;48.288;8.726;2022-11-04T11:58:47;11.50;98.60
2226;DHT22;1119;48.288;8.726;2022-11-04T12:01:21;11.40;99.40
2226;DHT22;1119;48.288;8.726;2022-11-04T12:03:51;11.40;99.90
2226;DHT22;1119;48.288;8.726;2022-11-04T12:06:32;11.30;99.90
2226;DHT22;1119;48.288;8.726;2022-11-04T12:09:20;11.30;99.90
2226;DHT22;1119;48.288;8.726;2022-11-04T12:12:11;11.30;99.90
2226;DHT22;1119;48.288;8.726;2022-11-04T12:14:53;11.40;99.90
2226;DHT22;1119;48.288;8.726;2022-11-04T12:17:40;11.60;99.90
2226;DHT22;1119;48.288;8.726;2022-11-04T12:20:21;11.60;99.90
2226;DHT22;1119;48.288;8.726;2022-11-04T12:22:58;11.70;99.90
2226;DHT22;1119;48.288;8.726;2022-11-04T12:25:38;11.80;99.90
2226;DHT22;1119;48.288;8.726;2022-11-04T12:28:21;11.80;99.90
2226;DHT22;1119;48.288;8.726;2022-11-04T12:31:02;11.80;99.90
2226;DHT22;1119;48.288;8.726;2022-11-04T12:33:44;11.90;99.90
2226;DHT22;1119;48.288;8.726;2022-11-04T12:36:26;11.80;99.90
2226;DHT22;1119;48.288;8.726;2022-11-04T12:39:15;11.90;99.90
2226;DHT22;1119;48.288;8.726;2022-11-04T12:41:54;12.00;99.90
2226;DHT22;1119;48.288;8.726;2022-11-04T12:44:32;12.10;99.70
2226;DHT22;1119;48.288;8.726;2022-11-04T12:47:14;12.10;98.60
2226;DHT22;1119;48.288;8.726;2022-11-04T12:50:19;12.00;99.00
2226;DHT22;1119;48.288;8.726;2022-11-04T12:53:15;12.00;98.00
2226;DHT22;1119;48.288;8.726;2022-11-04T12:55:58;11.90;97.50
2226;DHT22;1119;48.288;8.726;2022-11-04T12:58:38;11.80;97.60
2226;DHT22;1119;48.288;8.726;2022-11-04T13:01:12;11.70;98.20
2226;DHT22;1119;48.288;8.726;2022-11-04T13:03:45;11.70;98.60
2226;DHT22;1119;48.288;8.726;2022-11-04T13:06:19;11.70;98.60
2226;DHT22;1119;48.288;8.726;2022-11-04T13:08:52;11.80;98.80
2226;DHT22;1119;48.288;8.726;2022-11-04T13:11:25;11.70;99.10
2226;DHT22;1119;48.288;8.726;2022-11-04T13:13:58;12.00;99.50
2226;DHT22;1119;48.288;8.726;2022-11-04T13:16:30;11.80;98.70
2226;DHT22;1119;48.288;8.726;2022-11-04T13:19:01;11.80;97.90
2226;DHT22;1119;48.288;8.726;2022-11-04T13:21:35;11.80;97.40
2226;DHT22;1119;48.288;8.726;2022-11-04T13:24:05;11.60;96.80
2226;DHT22;1119;48.288;8.726;2022-11-04T13:26:40;11.50;96.80
2226;DHT22;1119;48.288;8.726;2022-11-04T13:29:13;11.40;97.30
2226;DHT22;1119;48.288;8.726;2022-11-04T13:31:47;11.40;97.40
2226;DHT22;1119;48.288;8.726;2022-11-04T13:34:25;11.50;97.80
2226;DHT22;1119;48.288;8.726;2022-11-04T13:37:07;11.50;97.50
2226;DHT22;1119;48.288;8.726;2022-11-04T13:39:41;11.50;97.30
2226;DHT22;1119;48.288;8.726;2022-11-04T13:42:40;11.50;97.70
2226;DHT22;1119;48.288;8.726;2022-11-04T13:45:16;11.50;97.10
2226;DHT22;1119;48.288;8.726;2022-11-04T13:47:47;11.40;96.70
2226;DHT22;1119;48.288;8.726;2022-11-04T13:50:32;11.40;97.10
2226;DHT22;1119;48.288;8.726;2022-11-04T13:53:03;11.40;97.20
2226;DHT22;1119;48.288;8.726;2022-11-04T13:55:34;11.40;96.70
2226;DHT22;1119;48.288;8.726;2022-11-04T13:58:06;11.20;96.80
2226;DHT22;1119;48.288;8.726;2022-11-04T14:00:34;11.30;96.70
2226;DHT22;1119;48.288;8.726;2022-11-04T14:06:14;11.20;96.90
2226;DHT22;1119;48.288;8.726;2022-11-04T14:09:22;11.10;96.80
2226;DHT22;1119;48.288;8.726;2022-11-04T14:12:25;11.00;96.90
2226;DHT22;1119;48.288;8.726;2022-11-04T14:14:55;10.90;97.10
2226;DHT22;1119;48.288;8.726;2022-11-04T14:17:58;10.80;96.90
2226;DHT22;1119;48.288;8.726;2022-11-04T14:20:30;10.60;97.20
2226;DHT22;1119;48.288;8.726;2022-11-04T14:23:00;10.60;97.60
2226;DHT22;1119;48.288;8.726;2022-11-04T14:25:33;10.60;97.90
2226;DHT22;1119;48.288;8.726;2022-11-04T14:28:17;10.70;98.20
2226;DHT22;1119;48.288;8.726;2022-11-04T14:30:51;10.70;98.00
2226;DHT22;1119;48.288;8.726;2022-11-04T14:33:28;10.70;97.70
2226;DHT22;1119;48.288;8.726;2022-11-04T14:36:22;10.60;97.80
2226;DHT22;1119;48.288;8.726;2022-11-04T14:38:54;10.70;98.10
2226;DHT22;1119;48.288;8.726;2022-11-04T14:44:33;10.80;98.10
2226;DHT22;1119;48.288;8.726;2022-11-04T14:47:12;10.90;97.80
2226;DHT22;1119;48.288;8.726;2022-11-04T14:49:44;10.90;97.70
2226;DHT22;1119;48.288;8.726;2022-11-04T14:52:20;10.90;97.80
2226;DHT22;1119;48.288;8.726;2022-11-04T14:54:54;10.90;97.80
2226;DHT22;1119;48.288;8.726;2022-11-04T14:57:29;11.00;97.50
2226;DHT22;1119;48.288;8.726;2022-11-04T15:00:24;10.90;97.60
2226;DHT22;1119;48.288;8.726;2022-11-04T15:03:13;10.90;97.90
2226;DHT22;1119;48.288;8.726;2022-11-04T15:05:47;10.80;98.20
2226;DHT22;1119;48.288;8.726;2022-11-04T15:08:26;10.80;98.20
2226;DHT22;1119;48.288;8.726;2022-11-04T15:11:01;10.70;98.30
2226;DHT22;1119;48.288;8.726;2022-11-04T15:13:37;10.80;98.80
2226;DHT22;1119;48.288;8.726;2022-11-04T15:16:14;10.70;99.00
2226;DHT22;1119;48.288;8.726;2022-11-04T15:18:44;10.80;98.80
2226;DHT22;1119;48.288;8.726;2022-11-04T15:21:12;10.80;98.90
2226;DHT22;1119;48.288;8.726;2022-11-04T15:23:43;10.90;99.00
2226;DHT22;1119;48.288;8.726;2022-11-04T15:26:20;10.90;99.20
2226;DHT22;1119;48.288;8.726;2022-11-04T15:28:51;10.80;99.60
2226;DHT22;1119;48.288;8.726;2022-11-04T15:31:21;11.10;99.90
2226;DHT22;1119;48.288;8.726;2022-11-04T15:33:52;10.80;99.90
2226;DHT22;1119;48.288;8.726;2022-11-04T15:36:23;10.80;99.90
2226;DHT22;1119;48.288;8.726;2022-11-04T15:38:53;10.70;99.90
2226;DHT22;1119;48.288;8.726;2022-11-04T15:41:25;10.60;99.90
2226;DHT22;1119;48.288;8.726;2022-11-04T15:44:20;10.50;99.90
2226;DHT22;1119;48.288;8.726;2022-11-04T15:46:52;10.50;99.90
2226;DHT22;1119;48.288;8.726;2022-11-04T15:49:23;10.50;99.90
2226;DHT22;1119;48.288;8.726;2022-11-04T15:51:54;10.50;99.90
2226;DHT22;1119;48.288;8.726;2022-11-04T15:54:27;10.40;99.90
2226;DHT22;1119;48.288;8.726;2022-11-04T15:56:58;10.40;99.90
2226;DHT22;1119;48.288;8.726;2022-11-04T15:59:30;10.30;99.90
2226;DHT22;1119;48.288;8.726;2022-11-04T16:02:01;10.30;99.90
2226;DHT22;1119;48.288;8.726;2022-11-04T16:04:30;10.10;99.90
2226;DHT22;1119;48.288;8.726;2022-11-04T16:07:19;10.10;99.90
2226;DHT22;1119;48.288;8.726;2022-11-04T16:09:50;10.00;99.90
2226;DHT22;1119;48.288;8.726;2022-11-04T16:12:25;9.90;99.90
2226;DHT22;1119;48.288;8.726;2022-11-04T16:14:57;9.90;99.90
2226;DHT22;1119;48.288;8.726;2022-11-04T16:17:26;9.90;99.90
2226;DHT22;1119;48.288;8.726;2022-11-04T16:19:57;9.80;99.90
2226;DHT22;1119;48.288;8.726;2022-11-04T16:22:28;9.90;99.90
2226;DHT22;1119;48.288;8.726;2022-11-04T16:24:57;9.80;99.90
2226;DHT22;1119;48.288;8.726;2022-11-04T16:27:27;10.00;99.90
2226;DHT22;1119;48.288;8.726;2022-11-04T16:30:06;9.80;99.90
2226;DHT22;1119;48.288;8.726;2022-11-04T16:32:40;9.80;99.90
2226;DHT22;1119;48.288;8.726;2022-11-04T16:35:17;10.00;99.90
2226;DHT22;1119;48.288;8.726;2022-11-04T16:37:47;9.90;99.90
2226;DHT22;1119;48.288;8.726;2022-11-04T16:40:16;9.90;99.90
2226;DHT22;1119;48.288;8.726;2022-11-04T16:42:44;9.90;99.90
2226;DHT22;1119;48.288;8.726;2022-11-04T16:45:22;10.00;99.90
2226;DHT22;1119;48.288;8.726;2022-11-04T16:47:52;10.00;99.90
2226;DHT22;1119;48.288;8.726;2022-11-04T16:50:19;10.20;99.90
2226;DHT22;1119;48.288;8.726;2022-11-04T16:52:49;10.00;99.90
2226;DHT22;1119;48.288;8.726;2022-11-04T16:55:17;9.90;99.90
2226;DHT22;1119;48.288;8.726;2022-11-04T16:57:45;9.90;99.90
2226;DHT22;1119;48.288;8.726;2022-11-04T17:00:19;9.80;99.90